Time;durP1;ratioP1;P1;durP2;ratioP2;P2;SDS_P1;SDS_P2;PMS_P1;PMS_P2;Temp;Humidity;BMP_temperature;BMP_pressure;BME280_temperature;BME280_humidity;BME280_pressure;Samples;Min_cycle;Max_cycle;Signal;HPM_P1;HPM_P2
2023/11/11 00:00:28;;;;;;;3.60;2.63;;;;;;;;;;4979648;28;20046;-81
2023/11/11 00:02:57;;;;;;;1.60;0.90;;;;;;;;;;4979001;28;20042;-81
2023/11/11 00:05:25;;;;;;;2.85;1.17;;;;;;;;;;4994397;28;20050;-81
2023/11/11 00:07:53;;;;;;;3.38;1.70;;;;;;;;;;4992974;28;20047;-81
2023/11/11 00:10:21;;;;;;;3.50;3.10;;;;;;;;;;4998215;28;20046;-81
2023/11/11 00:12:48;;;;;;;0.88;0.80;;;;;;;;;;4979587;28;20042;-81
2023/11/11 00:15:18;;;;;;;2.35;1.23;;;;;;;;;;4978124;28;20130;-79
2023/11/11 00:17:48;;;;;;;6.10;0.85;;;;;;;;;;4988291;28;20515;-78
2023/11/11 00:20:16;;;;;;;1.17;1.08;;;;;;;;;;4972597;28;20054;-78
2023/11/11 00:22:46;;;;;;;0.73;0.70;;;;;;;;;;4972572;28;20050;-78
2023/11/11 00:25:17;;;;;;;1.70;1.17;;;;;;;;;;4973071;28;20058;-78
2023/11/11 00:27:45;;;;;;;2.10;0.70;;;;;;;;;;5004730;28;20050;-78
2023/11/11 00:30:13;;;;;;;1.73;0.93;;;;;;;;;;4971996;28;20524;-78
2023/11/11 00:32:44;;;;;;;1.20;0.60;;;;;;;;;;4974675;28;20496;-78
2023/11/11 00:35:12;;;;;;;0.90;0.70;;;;;;;;;;4972808;28;20065;-78
2023/11/11 00:37:39;;;;;;;0.95;0.60;;;;;;;;;;5001912;28;20053;-78
2023/11/11 00:40:10;;;;;;;1.30;0.75;;;;;;;;;;4974190;28;20054;-78
2023/11/11 00:42:39;;;;;;;1.85;0.60;;;;;;;;;;4989909;28;20047;-78
2023/11/11 00:45:07;;;;;;;1.58;1.00;;;;;;;;;;4975203;28;20520;-78
2023/11/11 00:47:37;;;;;;;0.80;0.80;;;;;;;;;;4987425;28;20054;-78
2023/11/11 00:50:05;;;;;;;1.25;1.00;;;;;;;;;;4975030;28;20050;-78
2023/11/11 00:52:36;;;;;;;3.92;1.13;;;;;;;;;;4973457;28;20050;-78
2023/11/11 00:55:04;;;;;;;1.33;1.02;;;;;;;;;;4988012;28;20413;-78
2023/11/11 00:57:31;;;;;;;1.25;0.85;;;;;;;;;;4988386;28;20531;-78
2023/11/11 01:00:00;;;;;;;4.38;1.10;;;;;;;;;;4974756;28;20054;-78
2023/11/11 01:02:28;;;;;;;2.17;2.08;;;;;;;;;;4975063;28;20050;-78
2023/11/11 01:04:57;;;;;;;5.15;1.48;;;;;;;;;;4989894;28;20046;-78
2023/11/11 01:07:24;;;;;;;1.40;1.20;;;;;;;;;;4974881;28;20050;-78
2023/11/11 01:09:52;;;;;;;1.40;0.98;;;;;;;;;;4972924;28;20067;-79
2023/11/11 01:12:22;;;;;;;1.88;1.23;;;;;;;;;;4971058;28;20066;-79
2023/11/11 01:14:50;;;;;;;4.85;1.30;;;;;;;;;;4973326;28;20042;-78
2023/11/11 01:17:19;;;;;;;1.17;0.80;;;;;;;;;;4992321;28;20053;-78
2023/11/11 01:19:47;;;;;;;1.20;0.98;;;;;;;;;;4989379;28;20425;-78
2023/11/11 01:22:16;;;;;;;1.13;0.90;;;;;;;;;;4971197;28;20492;-78
2023/11/11 01:24:46;;;;;;;1.40;1.30;;;;;;;;;;4972392;28;20054;-78
2023/11/11 01:27:13;;;;;;;1.52;0.98;;;;;;;;;;4987730;28;20054;-78
2023/11/11 01:29:43;;;;;;;1.80;0.80;;;;;;;;;;4988149;28;20070;-78
2023/11/11 01:32:12;;;;;;;0.52;0.50;;;;;;;;;;4974585;28;20054;-78
2023/11/11 01:34:41;;;;;;;0.57;0.30;;;;;;;;;;4989235;28;20070;-78
2023/11/11 01:37:08;;;;;;;0.40;0.35;;;;;;;;;;4988034;28;20051;-78
2023/11/11 01:39:40;;;;;;;0.55;0.40;;;;;;;;;;4981649;28;20050;-78
2023/11/11 01:42:10;;;;;;;0.68;0.35;;;;;;;;;;4966729;28;20504;-78
2023/11/11 01:44:37;;;;;;;0.30;0.30;;;;;;;;;;4967159;28;20046;-78
2023/11/11 01:47:06;;;;;;;1.63;0.30;;;;;;;;;;5021612;22;20037;-82
2023/11/11 01:49:35;;;;;;;0.60;0.30;;;;;;;;;;5014190;28;20049;-82
2023/11/11 01:52:06;;;;;;;0.88;0.20;;;;;;;;;;5030977;28;20041;-82
2023/11/11 01:54:36;;;;;;;1.02;0.40;;;;;;;;;;5012951;28;20052;-82
2023/11/11 01:57:06;;;;;;;0.47;0.47;;;;;;;;;;5033332;28;20049;-82
2023/11/11 01:59:34;;;;;;;0.47;0.32;;;;;;;;;;5028698;28;20053;-81
2023/11/11 02:02:05;;;;;;;1.95;0.38;;;;;;;;;;5008755;28;20048;-82
2023/11/11 02:04:35;;;;;;;1.05;0.52;;;;;;;;;;5011625;28;20041;-82
2023/11/11 02:07:05;;;;;;;0.60;0.40;;;;;;;;;;5027312;28;20046;-82
2023/11/11 02:09:36;;;;;;;0.75;0.40;;;;;;;;;;5016805;28;20049;-82
2023/11/11 02:12:05;;;;;;;1.83;0.40;;;;;;;;;;5032782;28;20045;-81
2023/11/11 02:14:37;;;;;;;0.52;0.40;;;;;;;;;;5031271;28;20050;-81
2023/11/11 02:17:04;;;;;;;3.03;0.47;;;;;;;;;;5020676;28;20056;-81
2023/11/11 02:19:31;;;;;;;0.77;0.32;;;;;;;;;;5016227;28;20061;-81
2023/11/11 02:21:59;;;;;;;0.20;0.20;;;;;;;;;;5018578;28;20046;-81
2023/11/11 02:24:28;;;;;;;0.28;0.28;;;;;;;;;;5032738;28;20507;-81
2023/11/11 02:26:57;;;;;;;0.50;0.50;;;;;;;;;;5032952;28;20045;-82
2023/11/11 02:29:28;;;;;;;1.17;0.30;;;;;;;;;;5031602;28;20049;-82
2023/11/11 02:31:55;;;;;;;3.22;0.43;;;;;;;;;;5021488;28;20064;-82
2023/11/11 02:34:25;;;;;;;0.30;0.30;;;;;;;;;;5018122;28;20084;-82
2023/11/11 02:36:53;;;;;;;0.75;0.40;;;;;;;;;;5035689;28;20065;-82
2023/11/11 02:39:20;;;;;;;1.48;1.00;;;;;;;;;;5014588;28;20046;-82
2023/11/11 02:41:49;;;;;;;1.38;0.40;;;;;;;;;;5025789;28;20054;-82
2023/11/11 02:44:16;;;;;;;1.58;0.52;;;;;;;;;;5010595;28;20507;-82
2023/11/11 02:46:43;;;;;;;0.35;0.30;;;;;;;;;;5027870;28;20057;-82
2023/11/11 02:49:10;;;;;;;0.40;0.40;;;;;;;;;;5018287;28;20058;-82
2023/11/11 02:51:40;;;;;;;0.20;0.20;;;;;;;;;;5033526;28;20052;-82
2023/11/11 02:54:07;;;;;;;0.30;0.30;;;;;;;;;;5035581;28;20049;-82
2023/11/11 02:56:34;;;;;;;0.40;0.38;;;;;;;;;;5029952;28;20037;-82
2023/11/11 02:59:03;;;;;;;0.30;0.30;;;;;;;;;;5025012;28;20064;-83
2023/11/11 03:01:35;;;;;;;0.30;0.30;;;;;;;;;;5048572;28;20030;-83
2023/11/11 03:04:02;;;;;;;0.40;0.40;;;;;;;;;;5026901;28;21551;-83
2023/11/11 03:06:31;;;;;;;1.75;0.50;;;;;;;;;;5050142;28;20046;-83
2023/11/11 03:08:58;;;;;;;0.22;0.22;;;;;;;;;;5033154;28;20053;-83
2023/11/11 03:11:25;;;;;;;0.45;0.40;;;;;;;;;;5034166;28;20056;-83
2023/11/11 03:13:53;;;;;;;0.30;0.30;;;;;;;;;;5041591;28;20041;-82
2023/11/11 03:16:22;;;;;;;0.68;0.32;;;;;;;;;;5025747;28;20049;-83
2023/11/11 03:18:49;;;;;;;0.50;0.30;;;;;;;;;;5029171;28;20061;-83
2023/11/11 03:21:20;;;;;;;0.73;0.50;;;;;;;;;;5045640;28;20056;-83
2023/11/11 03:23:47;;;;;;;0.40;0.40;;;;;;;;;;5042238;28;20050;-82
2023/11/11 03:26:15;;;;;;;0.82;0.30;;;;;;;;;;5040497;28;20046;-82
2023/11/11 03:28:42;;;;;;;0.55;0.47;;;;;;;;;;5035215;28;20053;-82
2023/11/11 03:31:10;;;;;;;0.40;0.38;;;;;;;;;;5012660;28;20061;-82
2023/11/11 03:33:38;;;;;;;0.45;0.45;;;;;;;;;;5016726;28;20049;-82
2023/11/11 03:36:06;;;;;;;0.30;0.30;;;;;;;;;;5004064;28;20073;-82
2023/11/11 03:38:33;;;;;;;0.55;0.40;;;;;;;;;;5014798;28;20065;-82
2023/11/11 03:41:01;;;;;;;2.03;0.85;;;;;;;;;;5036849;28;20056;-82
2023/11/11 03:43:29;;;;;;;0.40;0.40;;;;;;;;;;5042060;28;20041;-82
2023/11/11 03:45:59;;;;;;;1.25;0.68;;;;;;;;;;5032809;28;20064;-82
2023/11/11 03:48:28;;;;;;;0.75;0.70;;;;;;;;;;5036447;28;20057;-82
2023/11/11 03:50:58;;;;;;;0.82;0.80;;;;;;;;;;5040476;28;20411;-82
2023/11/11 03:53:29;;;;;;;1.10;0.90;;;;;;;;;;5027559;28;20033;-82
2023/11/11 03:55:56;;;;;;;0.63;0.57;;;;;;;;;;5014479;28;20053;-82
2023/11/11 03:58:23;;;;;;;0.90;0.80;;;;;;;;;;5028425;28;20558;-82
2023/11/11 04:00:51;;;;;;;1.73;1.13;;;;;;;;;;5029111;28;20053;-82
2023/11/11 04:03:18;;;;;;;1.65;1.00;;;;;;;;;;5024174;28;20041;-82
2023/11/11 04:05:46;;;;;;;1.10;0.90;;;;;;;;;;5044066;28;20049;-82
2023/11/11 04:08:19;;;;;;;1.10;1.00;;;;;;;;;;5015271;28;20060;-82
2023/11/11 04:10:49;;;;;;;1.38;1.05;;;;;;;;;;5040316;28;20056;-82
2023/11/11 04:13:16;;;;;;;1.10;0.90;;;;;;;;;;5032061;28;20061;-83
2023/11/11 04:15:45;;;;;;;1.23;1.13;;;;;;;;;;5020453;28;20057;-83
2023/11/11 04:18:15;;;;;;;2.05;1.40;;;;;;;;;;5030469;28;20048;-82
2023/11/11 04:20:45;;;;;;;1.10;0.93;;;;;;;;;;5020846;28;20064;-82
2023/11/11 04:23:18;;;;;;;1.40;1.10;;;;;;;;;;5020898;28;20052;-82
2023/11/11 04:25:51;;;;;;;2.17;1.20;;;;;;;;;;5012235;28;20061;-83
2023/11/11 04:28:19;;;;;;;2.20;1.60;;;;;;;;;;5031831;28;20034;-83
2023/11/11 04:30:49;;;;;;;1.45;1.25;;;;;;;;;;5021685;28;20064;-83
2023/11/11 04:33:19;;;;;;;1.17;1.08;;;;;;;;;;5006277;28;20037;-82
2023/11/11 04:35:46;;;;;;;1.65;1.00;;;;;;;;;;5021352;28;20053;-82
2023/11/11 04:38:15;;;;;;;1.17;0.90;;;;;;;;;;5018225;28;20061;-82
2023/11/11 04:40:45;;;;;;;1.20;1.10;;;;;;;;;;5004967;28;20052;-82
2023/11/11 04:43:14;;;;;;;1.58;1.10;;;;;;;;;;5015211;28;20064;-83
2023/11/11 04:45:41;;;;;;;1.92;1.10;;;;;;;;;;5020783;28;20363;-83
2023/11/11 04:48:10;;;;;;;2.13;1.77;;;;;;;;;;5008885;28;20056;-83
2023/11/11 04:50:38;;;;;;;1.40;1.27;;;;;;;;;;5024758;28;20099;-82
2023/11/11 04:53:07;;;;;;;1.48;1.38;;;;;;;;;;5033242;28;20052;-83
2023/11/11 04:55:35;;;;;;;1.38;1.10;;;;;;;;;;5024239;28;20057;-83
2023/11/11 04:58:03;;;;;;;3.20;1.02;;;;;;;;;;5034461;28;20064;-83
2023/11/11 05:00:32;;;;;;;1.00;0.88;;;;;;;;;;5009275;28;20054;-83
2023/11/11 05:03:00;;;;;;;2.00;1.20;;;;;;;;;;5016609;28;20049;-83
2023/11/11 05:05:30;;;;;;;2.10;1.42;;;;;;;;;;5014073;28;20046;-83
2023/11/11 05:07:59;;;;;;;1.27;1.05;;;;;;;;;;5038291;28;20045;-83
2023/11/11 05:10:32;;;;;;;1.17;1.08;;;;;;;;;;5023739;28;20053;-83
2023/11/11 05:13:01;;;;;;;1.10;1.00;;;;;;;;;;5035212;28;20044;-83
2023/11/11 05:15:30;;;;;;;1.35;1.00;;;;;;;;;;5018728;28;20042;-82
2023/11/11 05:18:02;;;;;;;1.35;1.05;;;;;;;;;;5012697;28;20061;-82
2023/11/11 05:20:31;;;;;;;1.33;1.13;;;;;;;;;;5035250;28;20049;-82
2023/11/11 05:22:57;;;;;;;2.20;1.08;;;;;;;;;;5014694;28;20073;-82
2023/11/11 05:25:24;;;;;;;1.75;1.00;;;;;;;;;;5028255;28;20060;-82
2023/11/11 05:27:52;;;;;;;1.70;1.52;;;;;;;;;;5020001;28;20061;-82
2023/11/11 05:30:22;;;;;;;3.60;1.70;;;;;;;;;;5011707;28;20056;-82
2023/11/11 05:32:49;;;;;;;1.60;1.20;;;;;;;;;;5029461;28;20049;-82
2023/11/11 05:35:20;;;;;;;1.88;1.27;;;;;;;;;;5031185;28;20057;-82
2023/11/11 05:37:48;;;;;;;2.00;1.52;;;;;;;;;;5031590;28;20031;-82
2023/11/11 05:40:18;;;;;;;2.25;1.70;;;;;;;;;;5012356;28;20077;-82
2023/11/11 05:42:47;;;;;;;1.95;1.58;;;;;;;;;;5031063;28;20403;-82
2023/11/11 05:45:17;;;;;;;1.90;1.73;;;;;;;;;;5033166;28;20060;-82
2023/11/11 05:47:44;;;;;;;1.90;1.60;;;;;;;;;;5019462;28;20049;-82
2023/11/11 05:50:13;;;;;;;1.95;1.63;;;;;;;;;;5014649;28;20060;-82
2023/11/11 05:52:44;;;;;;;1.60;1.20;;;;;;;;;;5031488;28;20570;-82
2023/11/11 05:55:11;;;;;;;1.20;1.10;;;;;;;;;;5032535;28;20061;-82
2023/11/11 05:57:38;;;;;;;2.10;1.80;;;;;;;;;;5034111;28;20057;-81
2023/11/11 06:00:10;;;;;;;1.20;1.02;;;;;;;;;;5016517;28;20053;-82
2023/11/11 06:02:41;;;;;;;3.05;1.48;;;;;;;;;;5032625;28;20053;-81
2023/11/11 06:05:11;;;;;;;3.38;1.40;;;;;;;;;;5018721;28;20552;-81
2023/11/11 06:07:38;;;;;;;1.65;1.42;;;;;;;;;;5030933;28;20056;-82
2023/11/11 06:10:08;;;;;;;2.40;1.67;;;;;;;;;;5037703;28;20045;-81
2023/11/11 06:12:36;;;;;;;2.42;1.60;;;;;;;;;;5016444;28;20046;-82
2023/11/11 06:15:07;;;;;;;5.10;2.33;;;;;;;;;;5013780;28;20065;-82
2023/11/11 06:17:34;;;;;;;3.45;2.35;;;;;;;;;;5030228;28;20053;-82
2023/11/11 06:20:05;;;;;;;2.13;1.83;;;;;;;;;;5030353;28;20049;-82
2023/11/11 06:22:34;;;;;;;2.20;1.98;;;;;;;;;;5015288;28;20042;-82
2023/11/11 06:25:04;;;;;;;4.43;2.72;;;;;;;;;;5013399;28;20052;-82
2023/11/11 06:27:35;;;;;;;2.97;2.67;;;;;;;;;;5017174;28;20423;-83
2023/11/11 06:30:08;;;;;;;2.80;2.15;;;;;;;;;;5012357;28;20061;-82
2023/11/11 06:32:42;;;;;;;2.70;2.05;;;;;;;;;;5011276;28;20065;-82
2023/11/11 06:35:12;;;;;;;3.13;2.42;;;;;;;;;;5034616;28;20053;-82
2023/11/11 06:37:41;;;;;;;5.82;2.75;;;;;;;;;;5036287;28;20068;-82
2023/11/11 06:40:12;;;;;;;6.65;2.35;;;;;;;;;;5023324;28;20605;-82
2023/11/11 06:42:40;;;;;;;2.58;2.35;;;;;;;;;;5013715;28;20050;-82
2023/11/11 06:45:08;;;;;;;2.97;2.50;;;;;;;;;;5016231;28;20072;-82
2023/11/11 06:47:38;;;;;;;4.90;2.92;;;;;;;;;;5032495;28;20041;-82
2023/11/11 06:50:07;;;;;;;3.97;2.78;;;;;;;;;;5001371;28;20050;-82
2023/11/11 06:52:35;;;;;;;5.75;2.42;;;;;;;;;;5017075;28;20045;-82
2023/11/11 06:55:06;;;;;;;5.53;3.40;;;;;;;;;;5014502;28;20423;-82
2023/11/11 06:57:34;;;;;;;4.50;3.20;;;;;;;;;;5032109;28;20052;-82
2023/11/11 07:00:08;;;;;;;3.10;2.30;;;;;;;;;;5032989;28;20435;-82
2023/11/11 07:02:38;;;;;;;3.50;2.90;;;;;;;;;;5043818;28;20047;-80
2023/11/11 07:05:10;;;;;;;4.88;3.10;;;;;;;;;;5027522;28;20049;-81
2023/11/11 07:07:37;;;;;;;3.03;2.53;;;;;;;;;;5007013;28;20484;-81
2023/11/11 07:10:05;;;;;;;3.33;2.47;;;;;;;;;;5001928;28;20057;-80
2023/11/11 07:12:34;;;;;;;4.15;3.33;;;;;;;;;;5029468;28;20112;-81
2023/11/11 07:15:02;;;;;;;4.70;3.22;;;;;;;;;;5029030;28;20046;-80
2023/11/11 07:17:32;;;;;;;3.65;3.35;;;;;;;;;;5027274;28;20038;-81
2023/11/11 07:20:04;;;;;;;3.55;3.00;;;;;;;;;;5025777;28;20057;-80
2023/11/11 07:22:32;;;;;;;4.28;3.05;;;;;;;;;;5022594;28;20538;-81
2023/11/11 07:25:02;;;;;;;3.72;3.08;;;;;;;;;;5015035;28;20050;-80
2023/11/11 07:27:29;;;;;;;6.10;3.22;;;;;;;;;;5030593;28;20049;-81
2023/11/11 07:29:56;;;;;;;4.05;3.38;;;;;;;;;;5028693;28;20415;-81
2023/11/11 07:32:26;;;;;;;3.33;2.70;;;;;;;;;;5028736;28;20045;-81
2023/11/11 07:34:55;;;;;;;3.63;2.70;;;;;;;;;;5029686;28;20052;-80
2023/11/11 07:37:22;;;;;;;3.28;2.65;;;;;;;;;;5013770;28;20050;-81
2023/11/11 07:39:50;;;;;;;4.47;2.92;;;;;;;;;;5015845;28;20056;-81
2023/11/11 07:42:19;;;;;;;3.17;2.88;;;;;;;;;;5032661;28;20041;-81
2023/11/11 07:44:49;;;;;;;3.63;3.33;;;;;;;;;;5031877;28;20072;-81
2023/11/11 07:47:21;;;;;;;5.93;2.70;;;;;;;;;;5032249;28;20046;-82
2023/11/11 07:49:48;;;;;;;4.47;3.35;;;;;;;;;;5013106;28;20060;-82
2023/11/11 07:52:17;;;;;;;4.88;3.08;;;;;;;;;;5034588;28;20046;-82
2023/11/11 07:54:47;;;;;;;5.00;3.80;;;;;;;;;;5035327;28;20049;-82
2023/11/11 07:57:15;;;;;;;4.82;3.47;;;;;;;;;;5014556;28;20052;-82
2023/11/11 07:59:43;;;;;;;4.95;3.92;;;;;;;;;;5016976;28;20060;-82
2023/11/11 08:02:14;;;;;;;3.40;3.10;;;;;;;;;;5000640;28;20056;-82
2023/11/11 08:04:44;;;;;;;5.32;4.18;;;;;;;;;;5016355;28;20054;-82
2023/11/11 08:07:20;;;;;;;3.65;2.90;;;;;;;;;;5036232;28;20049;-81
2023/11/11 08:09:50;;;;;;;4.93;3.60;;;;;;;;;;5030072;28;20108;-81
2023/11/11 08:12:19;;;;;;;3.60;3.05;;;;;;;;;;5033422;28;20045;-80
2023/11/11 08:14:51;;;;;;;4.70;3.33;;;;;;;;;;5010320;28;20061;-81
2023/11/11 08:17:18;;;;;;;3.92;3.40;;;;;;;;;;5018322;28;20041;-81
2023/11/11 08:19:46;;;;;;;2.95;2.65;;;;;;;;;;5032931;28;20029;-80
2023/11/11 08:22:17;;;;;;;4.30;3.22;;;;;;;;;;5014829;28;20058;-80
2023/11/11 08:24:45;;;;;;;5.00;3.67;;;;;;;;;;5028712;28;20065;-81
2023/11/11 08:27:12;;;;;;;4.82;3.22;;;;;;;;;;5019018;28;20053;-81
2023/11/11 08:29:39;;;;;;;4.75;3.70;;;;;;;;;;5025263;28;20506;-81
2023/11/11 08:32:07;;;;;;;4.88;3.35;;;;;;;;;;5014670;28;20054;-81
2023/11/11 08:34:37;;;;;;;4.90;2.72;;;;;;;;;;5016429;28;20132;-80
2023/11/11 08:37:06;;;;;;;5.55;3.50;;;;;;;;;;5036245;28;20080;-80
2023/11/11 08:39:35;;;;;;;3.17;2.80;;;;;;;;;;5034388;28;20053;-81
2023/11/11 08:42:03;;;;;;;6.10;3.03;;;;;;;;;;5019624;28;20534;-81
2023/11/11 08:44:30;;;;;;;3.03;2.65;;;;;;;;;;5005533;28;20053;-81
2023/11/11 08:47:00;;;;;;;4.45;2.33;;;;;;;;;;4997251;28;20409;-81
2023/11/11 08:49:27;;;;;;;3.13;2.63;;;;;;;;;;5015741;28;20049;-81
2023/11/11 08:51:57;;;;;;;3.45;2.83;;;;;;;;;;5033602;28;20049;-81
2023/11/11 08:54:27;;;;;;;4.07;2.95;;;;;;;;;;5035426;28;20057;-81
2023/11/11 08:56:55;;;;;;;3.78;2.53;;;;;;;;;;5017923;28;20396;-81
2023/11/11 08:59:23;;;;;;;4.53;2.97;;;;;;;;;;5030031;28;20045;-81
2023/11/11 09:01:50;;;;;;;3.00;2.25;;;;;;;;;;5042750;28;20042;-81
2023/11/11 09:04:22;;;;;;;3.15;2.85;;;;;;;;;;5051222;28;20027;-80
2023/11/11 09:06:56;;;;;;;6.18;2.63;;;;;;;;;;5055037;28;20041;-81
2023/11/11 09:09:23;;;;;;;3.80;3.20;;;;;;;;;;5041523;28;20044;-79
2023/11/11 09:11:52;;;;;;;4.82;3.75;;;;;;;;;;5045378;28;20040;-80
2023/11/11 09:14:21;;;;;;;3.63;3.30;;;;;;;;;;5045752;28;20048;-80
2023/11/11 09:16:51;;;;;;;6.47;3.08;;;;;;;;;;5018007;28;20042;-80
2023/11/11 09:19:20;;;;;;;4.25;3.05;;;;;;;;;;5030899;28;20045;-80
2023/11/11 09:21:53;;;;;;;7.13;2.97;;;;;;;;;;5031433;28;20504;-80
2023/11/11 09:24:20;;;;;;;3.08;2.78;;;;;;;;;;5014109;28;20060;-80
2023/11/11 09:26:47;;;;;;;3.70;2.65;;;;;;;;;;5024563;28;20052;-80
2023/11/11 09:29:15;;;;;;;3.75;2.63;;;;;;;;;;5013989;28;20503;-80
2023/11/11 09:31:44;;;;;;;3.25;2.95;;;;;;;;;;5040841;28;20055;-80
2023/11/11 09:34:12;;;;;;;3.13;2.83;;;;;;;;;;5015174;28;20049;-80
2023/11/11 09:36:40;;;;;;;3.63;2.92;;;;;;;;;;5032681;28;20049;-80
2023/11/11 09:39:10;;;;;;;3.17;2.03;;;;;;;;;;5036297;28;20045;-79
2023/11/11 09:41:38;;;;;;;2.35;1.95;;;;;;;;;;5033630;28;20045;-80
2023/11/11 09:44:05;;;;;;;2.95;2.22;;;;;;;;;;5037521;28;20045;-80
2023/11/11 09:46:39;;;;;;;4.88;2.33;;;;;;;;;;5036752;28;20049;-79
2023/11/11 09:49:10;;;;;;;2.85;2.42;;;;;;;;;;5034410;28;20112;-80
2023/11/11 09:51:40;;;;;;;5.10;2.50;;;;;;;;;;5028479;28;20136;-79
2023/11/11 09:54:09;;;;;;;7.10;3.90;;;;;;;;;;5012133;28;20045;-79
2023/11/11 09:56:42;;;;;;;4.20;2.38;;;;;;;;;;5030077;28;20046;-79
2023/11/11 09:59:12;;;;;;;2.30;2.05;;;;;;;;;;5032155;28;20057;-79
2023/11/11 10:01:44;;;;;;;2.58;2.38;;;;;;;;;;5015489;28;20049;-79
2023/11/11 10:04:16;;;;;;;2.10;1.73;;;;;;;;;;5013874;28;20053;-79
2023/11/11 10:06:44;;;;;;;2.17;1.42;;;;;;;;;;5027647;28;20412;-80
2023/11/11 10:09:14;;;;;;;1.83;1.67;;;;;;;;;;5034020;28;20056;-80
2023/11/11 10:11:44;;;;;;;6.10;1.88;;;;;;;;;;5049526;28;20042;-80
2023/11/11 10:14:12;;;;;;;3.13;1.88;;;;;;;;;;5012308;28;20060;-81
2023/11/11 10:16:43;;;;;;;2.50;1.45;;;;;;;;;;5021238;28;20053;-82
2023/11/11 10:19:12;;;;;;;2.58;1.42;;;;;;;;;;5033806;28;20042;-82
2023/11/11 10:21:43;;;;;;;1.73;1.38;;;;;;;;;;5030989;28;20045;-81
2023/11/11 10:24:11;;;;;;;2.53;1.73;;;;;;;;;;5033869;28;20060;-82
2023/11/11 10:26:39;;;;;;;1.48;1.20;;;;;;;;;;5030734;28;20049;-81
2023/11/11 10:29:08;;;;;;;2.92;1.40;;;;;;;;;;5005189;28;20134;-81
2023/11/11 10:31:36;;;;;;;2.95;1.00;;;;;;;;;;5032619;28;20041;-81
2023/11/11 10:34:04;;;;;;;2.35;1.55;;;;;;;;;;5029974;28;20060;-81
2023/11/11 10:36:41;;;;;;;2.90;1.35;;;;;;;;;;5018350;28;20048;-81
2023/11/11 10:39:13;;;;;;;1.38;1.13;;;;;;;;;;5037464;28;20050;-81
2023/11/11 10:41:41;;;;;;;1.65;1.35;;;;;;;;;;5009459;28;20057;-81
2023/11/11 10:44:10;;;;;;;3.08;2.10;;;;;;;;;;5030069;28;20045;-82
2023/11/11 10:46:39;;;;;;;2.15;1.55;;;;;;;;;;5027044;28;20053;-82
2023/11/11 10:49:08;;;;;;;5.65;1.50;;;;;;;;;;5014575;28;20060;-79
2023/11/11 10:51:35;;;;;;;3.58;2.00;;;;;;;;;;5022876;28;20065;-80
2023/11/11 10:54:04;;;;;;;2.70;1.83;;;;;;;;;;5026437;28;20050;-82
2023/11/11 10:56:35;;;;;;;1.67;1.35;;;;;;;;;;5025101;28;20037;-81
2023/11/11 10:59:03;;;;;;;3.33;2.00;;;;;;;;;;5028842;28;20049;-81
2023/11/11 11:01:32;;;;;;;2.10;1.67;;;;;;;;;;5034852;28;20068;-81
2023/11/11 11:04:02;;;;;;;2.20;1.23;;;;;;;;;;5015042;28;20042;-82
2023/11/11 11:06:35;;;;;;;1.80;1.35;;;;;;;;;;5031419;28;20050;-82
2023/11/11 11:09:15;;;;;;;2.10;1.33;;;;;;;;;;5026207;28;20490;-81
2023/11/11 11:11:55;;;;;;;3.15;1.23;;;;;;;;;;5016998;28;20046;-82
2023/11/11 11:14:29;;;;;;;2.22;1.70;;;;;;;;;;5030389;28;20582;-82
2023/11/11 11:16:56;;;;;;;3.50;1.60;;;;;;;;;;5027635;28;20045;-82
2023/11/11 11:19:25;;;;;;;2.45;1.52;;;;;;;;;;5017945;28;20064;-82
2023/11/11 11:21:52;;;;;;;2.58;1.33;;;;;;;;;;5021845;28;20518;-81
2023/11/11 11:24:25;;;;;;;1.70;1.17;;;;;;;;;;5036034;28;20045;-81
2023/11/11 11:26:56;;;;;;;2.17;1.85;;;;;;;;;;5011964;28;20056;-80
2023/11/11 11:29:26;;;;;;;1.83;1.63;;;;;;;;;;5006146;28;20053;-79
2023/11/11 11:32:07;;;;;;;1.92;1.48;;;;;;;;;;5006757;28;20486;-79
2023/11/11 11:34:37;;;;;;;1.95;1.20;;;;;;;;;;5033718;28;20057;-79
2023/11/11 11:37:06;;;;;;;1.63;1.45;;;;;;;;;;5031199;28;20057;-79
2023/11/11 11:39:41;;;;;;;1.30;1.20;;;;;;;;;;5030107;28;20047;-81
2023/11/11 11:42:17;;;;;;;1.42;1.30;;;;;;;;;;5036247;28;20049;-82
2023/11/11 11:44:55;;;;;;;1.40;1.08;;;;;;;;;;5011586;28;20397;-82
2023/11/11 11:47:22;;;;;;;2.40;1.30;;;;;;;;;;5034173;28;20046;-82
2023/11/11 11:49:51;;;;;;;3.10;1.30;;;;;;;;;;5027249;28;20033;-81
2023/11/11 11:52:21;;;;;;;2.25;1.23;;;;;;;;;;5027923;28;20060;-81
2023/11/11 11:54:47;;;;;;;2.30;1.63;;;;;;;;;;5032527;28;20407;-81
2023/11/11 11:57:18;;;;;;;2.03;1.48;;;;;;;;;;5032597;28;20060;-81
2023/11/11 12:00:04;;;;;;;1.53;1.20;;;;;;;;;;5035454;28;20037;-81
2023/11/11 12:02:34;;;;;;;3.83;2.38;;;;;;;;;;5035621;28;20383;-81
2023/11/11 12:05:06;;;;;;;2.38;1.33;;;;;;;;;;5014682;28;20112;-81
2023/11/11 12:07:38;;;;;;;2.38;0.90;;;;;;;;;;5025496;28;20056;-81
2023/11/11 12:10:06;;;;;;;1.75;1.27;;;;;;;;;;5028330;28;20042;-81
2023/11/11 12:12:39;;;;;;;1.30;1.20;;;;;;;;;;5028505;28;20044;-81
2023/11/11 12:15:13;;;;;;;1.65;1.10;;;;;;;;;;5017033;28;20053;-81
2023/11/11 12:17:40;;;;;;;2.63;1.70;;;;;;;;;;5018257;28;20068;-81
2023/11/11 12:20:08;;;;;;;2.00;1.20;;;;;;;;;;5023841;28;20056;-81
2023/11/11 12:22:35;;;;;;;1.63;1.05;;;;;;;;;;5013540;28;20049;-81
2023/11/11 12:25:06;;;;;;;3.28;1.17;;;;;;;;;;5023078;28;20053;-82
2023/11/11 12:27:37;;;;;;;1.63;1.00;;;;;;;;;;5018103;28;20054;-81
2023/11/11 12:30:18;;;;;;;1.70;1.00;;;;;;;;;;5003256;28;20419;-81
2023/11/11 12:33:01;;;;;;;8.60;1.15;;;;;;;;;;5013944;28;20050;-81
2023/11/11 12:35:29;;;;;;;1.40;1.30;;;;;;;;;;5010198;28;20057;-82
2023/11/11 12:37:56;;;;;;;2.00;1.20;;;;;;;;;;5012778;28;20060;-82
2023/11/11 12:40:30;;;;;;;1.73;1.08;;;;;;;;;;5010057;28;20046;-82
2023/11/11 12:42:59;;;;;;;4.32;0.93;;;;;;;;;;5001484;28;20072;-79
2023/11/11 12:45:30;;;;;;;1.70;1.38;;;;;;;;;;5034066;28;20124;-82
2023/11/11 12:47:57;;;;;;;2.05;1.13;;;;;;;;;;5014623;28;20053;-82
2023/11/11 12:50:31;;;;;;;2.97;1.00;;;;;;;;;;5015133;28;20056;-81
2023/11/11 12:53:03;;;;;;;3.00;1.65;;;;;;;;;;5008974;28;20050;-81
2023/11/11 12:55:31;;;;;;;5.50;1.38;;;;;;;;;;5034412;28;20045;-81
2023/11/11 12:58:28;;;;;;;1.77;1.02;;;;;;;;;;5009272;28;20060;-82
2023/11/11 13:00:57;;;;;;;1.52;1.10;;;;;;;;;;5032718;28;20053;-82
2023/11/11 13:03:27;;;;;;;0.90;0.80;;;;;;;;;;5034059;28;20056;-81
2023/11/11 13:05:54;;;;;;;2.15;1.58;;;;;;;;;;5010199;28;20050;-81
2023/11/11 13:08:23;;;;;;;2.25;1.35;;;;;;;;;;5032533;28;20050;-81
2023/11/11 13:10:53;;;;;;;1.48;0.75;;;;;;;;;;5017571;28;20049;-81
2023/11/11 13:13:22;;;;;;;1.20;1.02;;;;;;;;;;5002114;28;20052;-82
2023/11/11 13:15:51;;;;;;;1.77;0.90;;;;;;;;;;5006851;28;20054;-82
2023/11/11 13:18:19;;;;;;;1.67;1.25;;;;;;;;;;5018328;28;20392;-81
2023/11/11 13:20:51;;;;;;;1.40;0.90;;;;;;;;;;5006881;28;20050;-81
2023/11/11 13:23:20;;;;;;;2.55;1.38;;;;;;;;;;5036253;28;20399;-81
2023/11/11 13:25:50;;;;;;;1.70;1.05;;;;;;;;;;5015494;28;20423;-81
2023/11/11 13:28:21;;;;;;;1.77;1.30;;;;;;;;;;5033620;28;20041;-81
2023/11/11 13:30:48;;;;;;;1.10;0.90;;;;;;;;;;5029281;28;20054;-81
2023/11/11 13:33:19;;;;;;;3.05;1.95;;;;;;;;;;5023288;28;20073;-81
2023/11/11 13:35:50;;;;;;;3.65;1.13;;;;;;;;;;5021909;28;20060;-81
2023/11/11 13:38:19;;;;;;;1.35;1.05;;;;;;;;;;5028474;28;20056;-81
2023/11/11 13:40:49;;;;;;;2.88;1.17;;;;;;;;;;5014995;28;20052;-81
2023/11/11 13:43:21;;;;;;;1.77;1.60;;;;;;;;;;5031694;28;20579;-81
2023/11/11 13:45:49;;;;;;;1.70;1.42;;;;;;;;;;5042563;22;20053;-80
2023/11/11 13:48:16;;;;;;;2.00;1.48;;;;;;;;;;4994871;28;20061;-80
2023/11/11 13:50:47;;;;;;;1.65;1.10;;;;;;;;;;5005389;28;20042;-80
2023/11/11 13:53:14;;;;;;;1.45;1.25;;;;;;;;;;4992674;28;20178;-80
2023/11/11 13:55:44;;;;;;;3.08;1.88;;;;;;;;;;4994414;28;20049;-80
2023/11/11 13:58:14;;;;;;;1.25;1.13;;;;;;;;;;4994288;28;20046;-79
2023/11/11 14:00:46;;;;;;;1.52;1.00;;;;;;;;;;4972342;28;20054;-79
2023/11/11 14:03:13;;;;;;;2.42;1.38;;;;;;;;;;4988845;28;20054;-79
2023/11/11 14:05:42;;;;;;;2.00;1.67;;;;;;;;;;4992654;28;20054;-80
2023/11/11 14:08:13;;;;;;;1.92;1.13;;;;;;;;;;4990617;28;20057;-81
2023/11/11 14:10:41;;;;;;;1.52;1.08;;;;;;;;;;4990482;28;20054;-81
2023/11/11 14:13:13;;;;;;;1.23;1.13;;;;;;;;;;4975872;28;20057;-81
2023/11/11 14:15:43;;;;;;;1.48;0.93;;;;;;;;;;4980762;28;20069;-82
2023/11/11 14:18:11;;;;;;;2.63;1.15;;;;;;;;;;5003411;28;20046;-82
2023/11/11 14:20:38;;;;;;;1.77;1.20;;;;;;;;;;4991485;28;21667;-82
2023/11/11 14:23:09;;;;;;;1.48;1.02;;;;;;;;;;4984282;28;20047;-81
2023/11/11 14:25:42;;;;;;;3.58;1.50;;;;;;;;;;5001796;28;20050;-81
2023/11/11 14:28:09;;;;;;;2.88;1.10;;;;;;;;;;4995796;28;20046;-81
2023/11/11 14:30:39;;;;;;;1.45;1.05;;;;;;;;;;4993033;28;20043;-81
2023/11/11 14:33:09;;;;;;;1.95;1.38;;;;;;;;;;4992261;28;20057;-82
2023/11/11 14:35:37;;;;;;;2.17;1.20;;;;;;;;;;4991292;28;20054;-82
2023/11/11 14:38:04;;;;;;;1.67;1.10;;;;;;;;;;4981696;28;20061;-82
2023/11/11 14:40:35;;;;;;;1.60;1.35;;;;;;;;;;4981647;28;20142;-81
2023/11/11 14:43:03;;;;;;;1.30;1.20;;;;;;;;;;4994121;28;20058;-82
2023/11/11 14:45:35;;;;;;;0.73;0.70;;;;;;;;;;4992845;28;20069;-82
2023/11/11 14:48:05;;;;;;;1.20;1.08;;;;;;;;;;4997869;28;20050;-82
2023/11/11 14:50:32;;;;;;;1.60;1.25;;;;;;;;;;4996920;28;20050;-82
2023/11/11 14:53:02;;;;;;;1.77;1.58;;;;;;;;;;5016228;28;20046;-82
2023/11/11 14:55:31;;;;;;;2.95;1.50;;;;;;;;;;4995792;28;20046;-81